createdAt,value
2018-11-06T00:01:32.144Z,69.17
2018-11-06T00:04:03.462Z,70.90
2018-11-06T00:06:32.566Z,78.40
2018-11-06T00:09:01.549Z,71.03
2018-11-06T00:11:30.511Z,79.20
2018-11-06T00:13:59.464Z,66.97
2018-11-06T00:16:28.460Z,74.60
2018-11-06T00:18:57.452Z,85.80
2018-11-06T00:21:26.429Z,61.40
2018-11-06T00:23:55.437Z,65.73
2018-11-06T00:26:24.415Z,59.97
2018-11-06T00:28:53.404Z,72.07
2018-11-06T00:31:23.129Z,61.77
2018-11-06T00:33:52.119Z,74.13
2018-11-06T00:36:21.163Z,75.00
2018-11-06T00:38:50.181Z,64.87
2018-11-06T00:41:19.144Z,67.10
2018-11-06T00:43:48.123Z,65.20
2018-11-06T00:46:17.103Z,67.20
2018-11-06T00:48:46.038Z,78.70
2018-11-06T00:51:14.981Z,68.77
2018-11-06T00:53:43.976Z,63.90
2018-11-06T00:56:12.943Z,72.57
2018-11-06T00:58:41.902Z,64.27
2018-11-06T01:01:10.843Z,66.07
2018-11-06T01:03:45.164Z,65.87
2018-11-06T01:06:14.107Z,61.60
2018-11-06T01:08:43.067Z,62.27
2018-11-06T01:11:12.007Z,57.27
2018-11-06T01:13:40.971Z,72.87
2018-11-06T01:16:10.093Z,60.43
2018-11-06T01:18:39.084Z,65.87
2018-11-06T01:21:08.021Z,67.43
2018-11-06T01:23:36.988Z,73.47
2018-11-06T01:26:06.283Z,70.03
2018-11-06T01:28:35.234Z,68.13
2018-11-06T01:31:04.265Z,69.23
2018-11-06T01:33:33.201Z,63.23
2018-11-06T01:36:02.141Z,66.23
2018-11-06T01:38:31.139Z,56.80
2018-11-06T01:41:00.099Z,56.87
2018-11-06T01:43:29.067Z,62.50
2018-11-06T01:45:58.013Z,63.60
2018-11-06T01:48:26.986Z,64.80
2018-11-06T01:50:55.923Z,62.30
2018-11-06T01:53:24.927Z,62.27
2018-11-06T01:55:53.868Z,61.63
2018-11-06T01:58:22.877Z,62.50
2018-11-06T02:00:51.815Z,71.73
2018-11-06T02:03:20.866Z,72.27
2018-11-06T02:05:49.809Z,63.43
2018-11-06T02:08:18.763Z,65.70
2018-11-06T02:10:47.713Z,63.87
2018-11-06T02:13:16.668Z,59.40
2018-11-06T02:15:45.607Z,58.00
2018-11-06T02:18:14.564Z,71.57
2018-11-06T02:20:43.524Z,65.13
2018-11-06T02:23:12.478Z,65.10
2018-11-06T02:25:41.452Z,68.87
2018-11-06T02:28:10.420Z,67.07
2018-11-06T02:30:39.395Z,72.10
2018-11-06T02:33:08.367Z,60.90
2018-11-06T02:35:37.333Z,65.27
2018-11-06T02:38:06.439Z,65.97
2018-11-06T02:40:35.376Z,62.50
2018-11-06T02:43:04.358Z,58.97
2018-11-06T02:45:33.327Z,64.80
2018-11-06T02:48:02.302Z,58.10
2018-11-06T02:50:31.244Z,69.57
2018-11-06T02:53:00.204Z,59.97
2018-11-06T02:55:29.200Z,64.07
2018-11-06T02:57:58.201Z,60.27
2018-11-06T03:00:27.147Z,69.17
2018-11-06T03:02:56.137Z,66.13
2018-11-06T03:05:25.133Z,69.90
2018-11-06T03:07:54.076Z,66.67
2018-11-06T03:10:23.106Z,62.77
2018-11-06T03:12:52.020Z,68.27
2018-11-06T03:15:21.014Z,60.03
2018-11-06T03:17:50.021Z,58.77
2018-11-06T03:20:18.976Z,60.90
2018-11-06T03:22:47.962Z,57.83
2018-11-06T03:25:16.965Z,64.30
2018-11-06T03:27:46.589Z,63.93
2018-11-06T03:30:16.321Z,59.57
2018-11-06T03:32:45.495Z,59.77
2018-11-06T03:35:15.204Z,55.50
2018-11-06T03:37:44.179Z,50.13
2018-11-06T03:40:13.536Z,54.60
2018-11-06T03:42:43.330Z,54.83
2018-11-06T03:45:13.123Z,55.70
2018-11-06T03:47:42.080Z,51.17
2018-11-06T03:50:12.377Z,53.70
2018-11-06T03:52:41.342Z,51.87
2018-11-06T03:55:10.551Z,55.67
2018-11-06T03:57:39.578Z,51.17
2018-11-06T04:00:10.668Z,51.63
2018-11-06T04:02:40.051Z,51.10
2018-11-06T04:05:09.385Z,52.93
2018-11-06T04:07:38.340Z,54.43
2018-11-06T04:10:08.500Z,50.00
2018-11-06T04:12:37.775Z,49.63
2018-11-06T04:15:07.086Z,52.37
2018-11-06T04:17:36.136Z,61.93
2018-11-06T04:20:05.676Z,51.00
2018-11-06T04:22:34.685Z,50.90
2018-11-06T04:25:03.694Z,45.17
2018-11-06T04:27:32.645Z,47.00
2018-11-06T04:30:01.604Z,46.33
2018-11-06T04:32:30.635Z,49.42
2018-11-06T04:34:59.644Z,49.30
2018-11-06T04:37:28.593Z,52.77
2018-11-06T04:39:57.569Z,48.00
2018-11-06T04:42:26.521Z,51.43
2018-11-06T04:44:55.464Z,51.33
2018-11-06T04:47:24.426Z,50.00
2018-11-06T04:49:53.635Z,44.93
2018-11-06T04:52:22.577Z,51.87
2018-11-06T04:54:51.579Z,58.20
2018-11-06T04:57:20.568Z,46.33
2018-11-06T04:59:49.544Z,53.77
2018-11-06T05:02:18.528Z,49.67
2018-11-06T05:04:47.527Z,51.97
2018-11-06T05:07:16.491Z,57.83
2018-11-06T05:09:45.525Z,49.27
2018-11-06T05:12:15.300Z,55.23
2018-11-06T05:14:44.675Z,47.63
2018-11-06T05:17:13.718Z,45.23
2018-11-06T05:19:42.695Z,46.60
2018-11-06T05:22:11.697Z,49.33
2018-11-06T05:24:40.709Z,52.33
2018-11-06T05:27:09.677Z,46.10
2018-11-06T05:29:38.681Z,47.23
2018-11-06T05:32:07.633Z,47.60
2018-11-06T05:34:36.630Z,51.73
2018-11-06T05:37:05.584Z,51.97
2018-11-06T05:39:34.787Z,52.80
2018-11-06T05:42:03.701Z,62.13
2018-11-06T05:44:32.642Z,49.97
2018-11-06T05:47:01.650Z,54.63
2018-11-06T05:49:30.639Z,49.93
2018-11-06T05:51:59.629Z,50.73
2018-11-06T05:54:28.585Z,43.50
2018-11-06T05:56:57.569Z,45.97
2018-11-06T05:59:26.527Z,53.07
2018-11-06T06:01:55.522Z,43.87
2018-11-06T06:04:24.464Z,48.57
2018-11-06T06:06:53.497Z,47.20
2018-11-06T06:09:22.524Z,46.57
2018-11-06T06:11:51.521Z,48.97
2018-11-06T06:14:20.463Z,48.83
2018-11-06T06:16:49.547Z,49.67
2018-11-06T06:19:18.503Z,46.50
2018-11-06T06:21:47.549Z,54.47
2018-11-06T06:24:16.520Z,51.43
2018-11-06T06:26:45.992Z,61.03
2018-11-06T06:29:14.945Z,57.53
2018-11-06T06:31:43.913Z,62.73
2018-11-06T06:34:12.859Z,49.23
2018-11-06T06:36:41.823Z,53.83
2018-11-06T06:39:11.060Z,56.40
2018-11-06T06:41:40.288Z,54.87
2018-11-06T06:44:09.282Z,62.73
2018-11-06T06:46:38.284Z,52.53
2018-11-06T06:49:07.229Z,47.67
2018-11-06T06:51:36.255Z,51.00
2018-11-06T06:54:05.766Z,54.30
2018-11-06T06:56:34.709Z,52.37
2018-11-06T06:59:03.663Z,45.70
2018-11-06T07:01:32.640Z,54.73
2018-11-06T07:04:01.588Z,44.43
2018-11-06T07:06:30.616Z,42.63
2018-11-06T07:08:59.576Z,43.40
2018-11-06T07:11:28.599Z,48.53
2018-11-06T07:13:57.558Z,37.80
2018-11-06T07:16:26.549Z,37.40
2018-11-06T07:18:56.506Z,38.63
2018-11-06T07:21:26.479Z,37.73
2018-11-06T07:23:55.512Z,43.67
2018-11-06T07:26:24.487Z,35.97
2018-11-06T07:28:53.605Z,37.40
2018-11-06T07:31:22.471Z,38.03
2018-11-06T07:33:51.465Z,40.27
2018-11-06T07:36:21.814Z,36.27
2018-11-06T07:38:50.814Z,35.07
2018-11-06T07:41:19.806Z,40.63
2018-11-06T07:43:48.801Z,37.93
2018-11-06T07:46:19.226Z,34.17
2018-11-06T07:48:52.912Z,37.93
2018-11-06T07:51:21.880Z,37.77
2018-11-06T07:53:50.862Z,37.77
2018-11-06T07:56:19.997Z,39.73
2018-11-06T07:58:48.890Z,43.33
2018-11-06T08:01:17.879Z,40.80
2018-11-06T08:03:46.865Z,41.77
2018-11-06T08:06:15.884Z,37.57
2018-11-06T08:08:44.883Z,38.10
2018-11-06T08:11:13.920Z,36.43
2018-11-06T08:13:42.911Z,39.97
2018-11-06T08:16:11.868Z,33.10
2018-11-06T08:18:40.864Z,36.50
2018-11-06T08:21:09.919Z,36.87
2018-11-06T08:23:38.980Z,35.20
2018-11-06T08:26:07.912Z,38.00
2018-11-06T08:28:36.907Z,40.33
2018-11-06T08:31:06.320Z,39.37
2018-11-06T08:33:34.939Z,39.83
2018-11-06T08:36:04.016Z,38.63
2018-11-06T08:38:33.029Z,40.73
2018-11-06T08:41:01.970Z,37.77
2018-11-06T08:43:30.954Z,38.00
2018-11-06T08:45:59.943Z,38.43
2018-11-06T08:48:28.996Z,43.20
2018-11-06T08:50:57.932Z,43.30
2018-11-06T08:53:26.908Z,34.70
2018-11-06T08:55:56.296Z,43.47
2018-11-06T08:58:25.318Z,36.68
2018-11-06T09:00:54.287Z,36.90
2018-11-06T09:03:23.403Z,46.43
2018-11-06T09:05:52.392Z,43.03
2018-11-06T09:08:21.405Z,42.13
2018-11-06T09:10:50.376Z,39.70
2018-11-06T09:13:19.376Z,43.80
2018-11-06T09:15:48.313Z,40.20
2018-11-06T09:18:17.283Z,39.40
2018-11-06T09:20:46.245Z,44.30
2018-11-06T09:23:15.444Z,42.80
2018-11-06T09:25:44.401Z,45.17
2018-11-06T09:28:13.488Z,37.90
2018-11-06T09:30:42.557Z,39.57
2018-11-06T09:33:11.521Z,35.77
2018-11-06T09:35:40.526Z,43.20
2018-11-06T09:38:09.556Z,34.73
2018-11-06T09:40:38.535Z,37.17
2018-11-06T09:43:07.534Z,34.90
2018-11-06T09:45:37.217Z,41.63
2018-11-06T09:48:06.447Z,37.97
2018-11-06T09:50:37.729Z,37.63
2018-11-06T09:53:06.797Z,40.93
2018-11-06T09:55:35.743Z,37.77
2018-11-06T09:58:05.285Z,37.63
2018-11-06T10:00:34.629Z,36.97
2018-11-06T10:03:03.601Z,40.30
2018-11-06T10:05:32.554Z,37.97
2018-11-06T10:08:02.799Z,35.10
2018-11-06T10:10:31.747Z,37.50
2018-11-06T10:13:00.785Z,37.77
2018-11-06T10:15:30.399Z,35.77
2018-11-06T10:17:59.333Z,36.07
2018-11-06T10:20:28.341Z,37.03
2018-11-06T10:22:57.311Z,45.30
2018-11-06T10:25:26.307Z,41.37
2018-11-06T10:27:55.265Z,45.73
2018-11-06T10:30:24.251Z,41.73
2018-11-06T10:32:53.229Z,37.93
2018-11-06T10:35:22.249Z,38.10
2018-11-06T10:37:51.237Z,42.93
2018-11-06T10:40:21.696Z,40.00
2018-11-06T10:42:51.012Z,44.67
2018-11-06T10:45:20.422Z,42.90
2018-11-06T10:47:49.576Z,40.53
2018-11-06T10:50:18.992Z,41.80
2018-11-06T10:52:48.518Z,39.13
2018-11-06T10:55:17.535Z,37.70
2018-11-06T10:57:48.169Z,40.30
2018-11-06T11:00:22.679Z,40.60
2018-11-06T11:02:56.934Z,38.20
2018-11-06T11:05:27.720Z,32.57
2018-11-06T11:07:56.714Z,34.03
2018-11-06T11:10:26.992Z,39.60
2018-11-06T11:12:55.956Z,36.30
2018-11-06T11:15:24.943Z,41.90
2018-11-06T11:17:53.899Z,39.70
2018-11-06T11:20:22.958Z,40.53
2018-11-06T11:22:51.941Z,33.07
2018-11-06T11:25:20.983Z,36.67
2018-11-06T11:27:49.956Z,50.10
2018-11-06T11:30:18.940Z,38.80
2018-11-06T11:32:48.569Z,39.80
2018-11-06T11:35:17.539Z,36.47
2018-11-06T11:37:46.602Z,35.90
2018-11-06T11:40:16.267Z,42.77
2018-11-06T11:42:45.219Z,38.77
2018-11-06T11:45:15.097Z,38.90
2018-11-06T11:47:44.076Z,41.53
2018-11-06T11:50:14.318Z,33.40
2018-11-06T11:52:43.277Z,38.07
2018-11-06T11:55:12.523Z,32.73
2018-11-06T11:57:41.681Z,39.07
2018-11-06T12:00:13.336Z,35.93
2018-11-06T12:02:42.308Z,33.00
2018-11-06T12:05:11.947Z,40.10
2018-11-06T12:07:40.962Z,34.47
2018-11-06T12:10:11.068Z,39.20
2018-11-06T12:12:40.242Z,36.40
2018-11-06T12:15:11.410Z,32.50
2018-11-06T12:17:40.623Z,34.23
2018-11-06T12:20:09.713Z,36.23
2018-11-06T12:22:39.193Z,31.43
2018-11-06T12:25:08.462Z,35.80
2018-11-06T12:27:37.676Z,33.87
2018-11-06T12:30:08.561Z,37.17
2018-11-06T12:32:37.949Z,31.50
2018-11-06T12:35:07.556Z,39.03
2018-11-06T12:37:36.722Z,38.37
2018-11-06T12:40:06.715Z,30.47
2018-11-06T12:42:35.846Z,31.63
2018-11-06T12:45:05.795Z,33.97
2018-11-06T12:47:34.776Z,30.53
2018-11-06T12:50:03.749Z,29.63
2018-11-06T12:52:32.708Z,33.20
2018-11-06T12:55:01.756Z,31.67
2018-11-06T12:57:30.717Z,33.10
2018-11-06T12:59:59.677Z,38.20
2018-11-06T13:02:28.619Z,36.03
2018-11-06T13:04:57.594Z,33.53
2018-11-06T13:07:26.545Z,28.03
2018-11-06T13:09:55.542Z,32.87
2018-11-06T13:12:24.519Z,37.93
2018-11-06T13:14:55.182Z,32.70
2018-11-06T13:17:22.483Z,37.07
2018-11-06T13:19:51.478Z,38.60
2018-11-06T13:22:20.443Z,36.20
2018-11-06T13:24:49.482Z,34.57
2018-11-06T13:27:18.472Z,34.20
2018-11-06T13:29:47.505Z,34.17
2018-11-06T13:32:16.544Z,34.47
2018-11-06T13:34:45.623Z,38.33
2018-11-06T13:37:14.593Z,32.27
2018-11-06T13:39:43.572Z,37.97
2018-11-06T13:42:12.543Z,49.23
2018-11-06T13:44:41.888Z,43.07
2018-11-06T13:47:10.549Z,40.20
2018-11-06T13:49:39.517Z,39.60
2018-11-06T13:52:08.563Z,38.63
2018-11-06T13:54:37.477Z,35.80
2018-11-06T13:57:06.462Z,44.27
2018-11-06T13:59:35.392Z,31.73
2018-11-06T14:02:04.489Z,32.10
2018-11-06T14:04:33.497Z,31.13
2018-11-06T14:07:02.473Z,29.07
2018-11-06T14:09:31.439Z,24.90
2018-11-06T14:12:00.415Z,29.50
2018-11-06T14:14:29.417Z,28.13
2018-11-06T14:16:58.379Z,32.60
2018-11-06T14:19:27.326Z,28.23
2018-11-06T14:21:56.298Z,27.47
2018-11-06T14:24:25.253Z,27.73
2018-11-06T14:26:54.322Z,30.10
2018-11-06T14:29:23.263Z,27.37
2018-11-06T14:31:52.289Z,29.37
2018-11-06T14:34:21.213Z,31.57
2018-11-06T14:36:50.188Z,28.10
2018-11-06T14:39:19.177Z,32.07
2018-11-06T14:41:48.153Z,29.70
2018-11-06T14:44:17.189Z,35.23
2018-11-06T14:46:46.242Z,26.77
2018-11-06T14:49:15.219Z,31.47
2018-11-06T14:51:44.233Z,29.60
2018-11-06T14:54:13.189Z,32.80
2018-11-06T14:56:42.198Z,29.83
2018-11-06T14:59:11.169Z,23.13
2018-11-06T15:01:40.164Z,28.63
2018-11-06T15:04:09.116Z,33.50
2018-11-06T15:06:38.328Z,29.60
2018-11-06T15:09:08.589Z,28.13
2018-11-06T15:11:37.949Z,22.50
2018-11-06T15:14:06.927Z,25.23
2018-11-06T15:16:35.938Z,26.13
2018-11-06T15:19:05.192Z,27.20
2018-11-06T15:21:34.208Z,23.43
2018-11-06T15:24:03.285Z,24.80
2018-11-06T15:26:32.330Z,31.73
2018-11-06T15:29:01.288Z,28.43
2018-11-06T15:31:30.294Z,31.30
2018-11-06T15:33:59.297Z,25.37
2018-11-06T15:36:28.374Z,27.43
2018-11-06T15:38:57.400Z,35.97
2018-11-06T15:41:26.517Z,32.10
2018-11-06T15:43:55.444Z,24.23
2018-11-06T15:46:24.449Z,25.43
2018-11-06T15:48:53.493Z,24.40
2018-11-06T15:51:22.419Z,28.13
2018-11-06T15:53:51.410Z,27.27
2018-11-06T15:56:20.383Z,33.83
2018-11-06T15:58:49.413Z,29.80
2018-11-06T16:01:18.369Z,29.90
2018-11-06T16:03:47.419Z,27.23
2018-11-06T16:06:16.395Z,30.73
2018-11-06T16:08:45.428Z,37.70
2018-11-06T16:11:14.430Z,19.00
2018-11-06T16:13:43.451Z,27.30
2018-11-06T16:16:12.468Z,29.97
2018-11-06T16:18:43.038Z,30.93
2018-11-06T16:21:12.011Z,30.00
2018-11-06T16:23:40.987Z,34.73
2018-11-06T16:26:09.968Z,24.37
2018-11-06T16:28:38.980Z,22.57
2018-11-06T16:31:07.983Z,24.90
2018-11-06T16:33:37.029Z,26.00
2018-11-06T16:36:06.145Z,21.67
2018-11-06T16:38:37.009Z,23.40
2018-11-06T16:41:06.511Z,25.77
2018-11-06T16:43:35.601Z,23.90
2018-11-06T16:46:04.679Z,27.90
2018-11-06T16:48:33.755Z,23.57
2018-11-06T16:51:02.726Z,28.93
2018-11-06T16:53:31.728Z,22.50
2018-11-06T16:56:00.692Z,25.67
2018-11-06T16:58:29.684Z,22.57
2018-11-06T17:00:58.974Z,17.03
2018-11-06T17:03:27.844Z,21.80
2018-11-06T17:05:57.173Z,23.60
2018-11-06T17:08:26.468Z,19.47
2018-11-06T17:10:55.637Z,23.27
2018-11-06T17:13:24.862Z,24.40
2018-11-06T17:15:53.856Z,29.23
2018-11-06T17:18:23.172Z,23.40
2018-11-06T17:20:52.167Z,31.13
2018-11-06T17:23:22.038Z,27.23
2018-11-06T17:25:50.978Z,24.83
2018-11-06T17:28:20.064Z,24.53
2018-11-06T17:30:50.665Z,28.37
2018-11-06T17:33:19.749Z,33.83
2018-11-06T17:35:48.789Z,28.77
2018-11-06T17:38:17.899Z,28.40
2018-11-06T17:40:51.095Z,23.67
2018-11-06T17:43:20.496Z,33.50
2018-11-06T17:45:49.487Z,28.87
2018-11-06T17:48:18.461Z,31.13
2018-11-06T17:50:47.441Z,37.20
2018-11-06T17:53:16.463Z,27.70
2018-11-06T17:55:45.435Z,28.10
2018-11-06T17:58:14.408Z,26.63
2018-11-06T18:00:43.377Z,29.17
2018-11-06T18:03:12.403Z,24.97
2018-11-06T18:05:41.448Z,29.53
2018-11-06T18:08:10.426Z,27.07
2018-11-06T18:10:39.499Z,24.53
2018-11-06T18:13:08.506Z,35.63
2018-11-06T18:15:37.993Z,30.50
2018-11-06T18:18:07.216Z,30.57
2018-11-06T18:20:36.256Z,27.90
2018-11-06T18:23:05.386Z,31.93
2018-11-06T18:25:34.483Z,28.53
2018-11-06T18:28:03.431Z,29.17
2018-11-06T18:30:32.450Z,34.13
2018-11-06T18:33:01.437Z,28.67
2018-11-06T18:35:30.468Z,26.10
2018-11-06T18:37:59.663Z,28.93
2018-11-06T18:40:28.738Z,30.90
2018-11-06T18:42:58.277Z,27.37
2018-11-06T18:45:27.417Z,31.50
2018-11-06T18:47:56.380Z,31.43
2018-11-06T18:50:25.427Z,27.37
2018-11-06T18:52:54.397Z,24.40
2018-11-06T18:55:23.411Z,27.73
2018-11-06T18:57:52.805Z,27.03
2018-11-06T19:00:22.768Z,27.53
2018-11-06T19:02:52.966Z,25.47
2018-11-06T19:05:23.309Z,31.13
2018-11-06T19:07:52.418Z,25.93
2018-11-06T19:10:21.465Z,32.03
2018-11-06T19:12:50.463Z,28.57
2018-11-06T19:15:21.822Z,31.03
2018-11-06T19:17:51.100Z,29.63
2018-11-06T19:20:20.803Z,28.17
2018-11-06T19:22:49.792Z,27.40
2018-11-06T19:25:18.847Z,28.37
2018-11-06T19:27:47.849Z,25.87
2018-11-06T19:30:18.095Z,26.20
2018-11-06T19:32:48.237Z,24.67
2018-11-06T19:35:17.251Z,33.60
2018-11-06T19:37:46.312Z,26.67
2018-11-06T19:40:16.617Z,27.03
2018-11-06T19:42:50.004Z,31.83
2018-11-06T19:45:20.339Z,28.40
2018-11-06T19:47:50.275Z,28.50
2018-11-06T19:50:19.937Z,32.03
2018-11-06T19:52:48.997Z,24.87
2018-11-06T19:55:18.494Z,32.10
2018-11-06T19:57:47.490Z,25.77
2018-11-06T20:00:18.299Z,28.30
2018-11-06T20:02:48.308Z,28.60
2018-11-06T20:05:17.426Z,30.20
2018-11-06T20:07:47.360Z,30.03
2018-11-06T20:10:17.838Z,27.40
2018-11-06T20:12:47.830Z,31.40
2018-11-06T20:15:17.413Z,33.80
2018-11-06T20:17:46.965Z,28.23
2018-11-06T20:20:19.205Z,37.67
2018-11-06T20:22:48.260Z,30.73
2018-11-06T20:25:17.319Z,26.93
2018-11-06T20:27:46.302Z,30.27
2018-11-06T20:30:17.346Z,31.90
2018-11-06T20:32:46.419Z,31.27
2018-11-06T20:35:15.976Z,32.90
2018-11-06T20:37:45.193Z,30.30
2018-11-06T20:40:18.054Z,24.97
2018-11-06T20:42:47.640Z,30.70
2018-11-06T20:45:17.745Z,28.73
2018-11-06T20:47:46.923Z,31.67
2018-11-06T20:50:17.340Z,34.57
2018-11-06T20:52:46.518Z,32.10
2018-11-06T20:55:16.291Z,52.33
2018-11-06T20:57:45.240Z,35.27
2018-11-06T21:00:21.121Z,65.30
2018-11-06T21:02:51.025Z,49.60
2018-11-06T21:05:20.095Z,50.20
2018-11-06T21:07:49.340Z,43.40
2018-11-06T21:10:19.662Z,47.93
2018-11-06T21:12:48.645Z,44.50
2018-11-06T21:15:17.676Z,68.83
2018-11-06T21:17:46.784Z,39.83
2018-11-06T21:20:16.398Z,47.37
2018-11-06T21:22:45.484Z,40.80
2018-11-06T21:25:14.543Z,42.37
2018-11-06T21:27:43.850Z,36.80
2018-11-06T21:30:15.071Z,36.20
2018-11-06T21:32:45.337Z,36.20
2018-11-06T21:35:14.323Z,37.80
2018-11-06T21:37:43.374Z,38.10
2018-11-06T21:40:19.261Z,42.87
2018-11-06T21:42:48.643Z,36.00
2018-11-06T21:45:18.053Z,38.57
2018-11-06T21:47:47.888Z,41.63
2018-11-06T21:50:17.558Z,34.50
2018-11-06T21:52:48.057Z,36.70
2018-11-06T21:55:18.119Z,39.60
2018-11-06T21:57:47.091Z,34.17
2018-11-06T22:00:17.599Z,34.17
2018-11-06T22:02:46.553Z,37.30
2018-11-06T22:05:16.758Z,34.57
2018-11-06T22:07:45.974Z,35.63
2018-11-06T22:10:16.398Z,33.77
2018-11-06T22:12:45.792Z,36.73
2018-11-06T22:15:15.908Z,35.87
2018-11-06T22:17:45.525Z,35.63
2018-11-06T22:20:15.856Z,40.07
2018-11-06T22:22:45.393Z,34.63
2018-11-06T22:25:14.344Z,38.10
2018-11-06T22:27:43.707Z,36.30
2018-11-06T22:30:13.813Z,37.37
2018-11-06T22:32:43.502Z,42.70
2018-11-06T22:35:13.809Z,34.60
2018-11-06T22:37:43.016Z,34.07
2018-11-06T22:40:14.997Z,41.00
2018-11-06T22:42:44.032Z,45.97
2018-11-06T22:45:14.325Z,41.47
2018-11-06T22:47:43.350Z,39.10
2018-11-06T22:50:13.586Z,38.63
2018-11-06T22:52:43.003Z,39.23
2018-11-06T22:55:11.967Z,43.67
2018-11-06T22:57:40.980Z,39.43
2018-11-06T23:00:15.319Z,39.00
2018-11-06T23:02:44.416Z,38.77
2018-11-06T23:05:13.932Z,41.97
2018-11-06T23:07:48.217Z,44.97
2018-11-06T23:10:17.164Z,46.63
2018-11-06T23:12:46.135Z,45.00
2018-11-06T23:15:15.141Z,37.17
2018-11-06T23:17:44.124Z,41.87
2018-11-06T23:20:13.113Z,36.93
2018-11-06T23:22:42.156Z,41.80
2018-11-06T23:25:11.142Z,38.23
2018-11-06T23:27:40.392Z,39.33
2018-11-06T23:30:11.653Z,36.73
2018-11-06T23:32:41.211Z,38.03
2018-11-06T23:35:10.182Z,44.10
2018-11-06T23:37:39.900Z,41.00
2018-11-06T23:40:09.479Z,45.13
2018-11-06T23:42:38.529Z,46.23
2018-11-06T23:45:07.948Z,39.07
2018-11-06T23:47:36.918Z,43.73
2018-11-06T23:50:06.965Z,40.23
2018-11-06T23:52:35.927Z,38.77
2018-11-06T23:55:05.045Z,41.77
2018-11-06T23:57:34.038Z,39.97
